EDT,Max TemperatureF,Mean TemperatureF,Min TemperatureF,Max Dew PointF,MeanDew PointF,Min DewpointF,Max Humidity, Mean Humidity, Min Humidity, Max Sea Level PressureIn, Mean Sea Level PressureIn, Min Sea Level PressureIn, Max VisibilityMiles, Mean VisibilityMiles, Min VisibilityMiles, Max Wind SpeedMPH, Mean Wind SpeedMPH, Max Gust SpeedMPH,PrecipitationIn, CloudCover, Events, WindDirDegrees
2012-10-1,62,60,57,63,60,57,100,99,94,29.90,29.80,29.73,10,5,2,5,0,,2.06,8,Rain,148
2012-10-2,71,66,60,64,58,54,100,78,53,30.03,29.86,29.75,10,9,2,10,2,17,0.94,7,Rain,137
2012-10-3,75,63,51,59,52,41,100,76,29,30.25,30.14,30.03,10,8,0,8,1,,0.00,2,Fog,118
2012-10-4,73,60,46,57,49,43,100,78,33,30.34,30.28,30.25,10,7,0,10,1,,0.00,2,Fog,331
2012-10-5,77,60,44,55,49,43,100,82,36,30.31,30.20,30.07,10,6,0,6,0,,0.00,4,Fog,128
2012-10-6,71,60,48,63,53,48,100,84,53,30.12,30.04,29.97,10,6,0,9,1,,0.00,5,Fog,287
2012-10-7,59,52,44,55,49,41,100,90,67,30.13,30.06,30.01,10,10,5,14,1,23,0.12,6,Rain,293
2012-10-8,51,48,46,50,47,43,100,96,82,30.18,30.12,30.09,10,8,2,0,0,,0.01,8,Rain,-1
2012-10-9,62,52,41,48,44,39,100,80,52,30.17,30.12,30.06,10,10,7,5,0,,0.00,5,,340
2012-10-10,59,50,42,50,44,41,100,83,59,30.21,30.15,30.11,10,7,0,10,1,17,0.00,6,Fog,305
2012-10-11,69,52,35,46,40,34,100,80,31,30.33,30.26,30.21,10,7,0,6,0,,0.00,4,Fog,300
2012-10-12,71,56,42,54,49,43,100,80,50,30.32,30.27,30.23,10,10,7,12,2,18,0.00,3,,293
2012-10-13,68,57,46,52,46,43,100,74,43,30.42,30.36,30.31,10,6,0,10,1,16,0.00,3,Fog,146
2012-10-14,64,53,42,57,52,43,100,84,68,30.34,30.21,30.05,10,10,5,8,1,,0.00,7,,118
2012-10-15,66,56,44,59,48,36,100,68,34,30.04,29.95,29.91,10,9,2,16,3,24,0.59,4,Rain,295
2012-10-16,68,52,35,46,36,27,100,70,23,30.03,29.97,29.89,10,9,0,8,1,,0.00,0,Fog,291
2012-10-17,68,50,33,45,37,32,100,73,26,30.02,29.95,29.89,10,9,0,9,1,17,0.00,1,Fog,131
2012-10-18,69,56,42,54,50,41,100,78,46,29.90,29.85,29.80,10,10,7,9,3,,0.02,4,Rain,142
2012-10-19,64,48,32,41,30,19,100,62,18,29.86,29.81,29.75,10,10,7,21,3,32,0.00,1,,248
2012-10-20,64,50,37,41,37,34,100,64,32,30.02,29.90,29.82,10,9,3,15,3,21,0.00,2,,312
2012-10-21,71,52,32,46,36,32,100,75,23,30.21,30.13,30.03,10,7,0,8,1,,0.00,2,Fog,298
2012-10-22,77,55,33,46,39,32,100,71,24,30.30,30.23,30.15,10,9,3,7,0,,0.00,0,,132
2012-10-23,77,57,37,52,43,37,100,76,26,30.27,30.20,30.13,10,8,0,6,0,,0.00,2,Fog,85
2012-10-24,78,58,37,55,40,32,100,71,18,30.28,30.20,30.10,10,7,0,6,0,,0.00,2,Fog,125
2012-10-25,73,54,35,50,42,34,100,75,36,30.21,30.16,30.11,10,9,2,9,1,,0.00,1,,204
2012-10-26,73,58,44,54,49,43,100,79,33,30.16,30.07,29.98,10,9,5,4,0,,0.00,3,,227
2012-10-27,69,58,46,55,49,45,100,80,49,29.99,29.88,29.79,10,9,2,12,2,17,0.00,4,Rain,285
2012-10-28,51,45,39,45,40,32,100,84,66,29.87,29.83,29.80,10,9,4,10,2,20,0.16,7,Rain,299
2012-10-29,42,38,35,32,32,30,87,77,66,29.86,29.80,29.69,10,9,5,15,8,24,0.07,7,Rain,299
2012-10-30,39,37,35,32,29,23,87,73,56,29.75,29.64,29.56,10,10,7,16,6,24,0.02,6,Rain,304
2012-10-31,53,42,32,30,24,7,75,52,15,29.85,29.78,29.74,10,10,10,15,6,24,0.00,4,,309